createdAt,value
2022-11-20T00:00:57.171Z,100142.06
2022-11-20T00:03:25.232Z,100132.97
2022-11-20T00:05:53.341Z,100134.97
2022-11-20T00:08:22.576Z,100134.91
2022-11-20T00:10:50.754Z,100136.50
2022-11-20T00:13:18.657Z,100130.06
2022-11-20T00:15:46.769Z,100140.16
2022-11-20T00:18:14.789Z,100142.63
2022-11-20T00:20:42.931Z,100139.41
2022-11-20T00:23:10.853Z,100144.66
2022-11-20T00:25:40.289Z,100143.63
2022-11-20T00:28:08.198Z,100141.00
2022-11-20T00:30:36.459Z,100139.78
2022-11-20T00:33:04.530Z,100134.91
2022-11-20T00:35:32.717Z,100140.94
2022-11-20T00:38:00.603Z,100130.06
2022-11-20T00:40:28.736Z,100144.00
2022-11-20T00:42:57.957Z,100145.81
2022-11-20T00:45:26.085Z,100151.06
2022-11-20T00:47:54.021Z,100143.78
2022-11-20T00:50:22.164Z,100138.53
2022-11-20T00:52:50.037Z,100138.53
2022-11-20T00:55:18.227Z,100141.75
2022-11-20T00:57:46.143Z,100138.09
2022-11-20T01:00:17.143Z,100139.72
2022-11-20T01:02:45.100Z,100135.69
2022-11-20T01:05:13.254Z,100142.66
2022-11-20T01:07:41.139Z,100146.69
2022-11-20T01:10:10.143Z,100148.31
2022-11-20T01:12:38.055Z,100137.81
2022-11-20T01:15:07.087Z,100143.06
2022-11-20T01:17:36.375Z,100141.59
2022-11-20T01:20:04.985Z,100141.16
2022-11-20T01:22:32.900Z,100143.78
2022-11-20T01:25:00.998Z,100143.19
2022-11-20T01:27:28.927Z,100141.38
2022-11-20T01:30:01.110Z,100140.56
2022-11-20T01:32:29.405Z,100143.06
2022-11-20T01:34:58.900Z,100140.44
2022-11-20T01:37:26.759Z,100137.03
2022-11-20T01:39:54.862Z,100132.56
2022-11-20T01:42:40.250Z,100138.16
2022-11-20T01:45:41.039Z,100137.38
2022-11-20T01:48:09.401Z,100135.19
2022-11-20T01:50:38.966Z,100133.72
2022-11-20T01:53:09.434Z,100131.09
2022-11-20T01:55:43.356Z,100129.06
2022-11-20T01:58:11.405Z,100131.69
2022-11-20T02:00:39.599Z,100128.97
2022-11-20T02:03:09.366Z,100123.22
2022-11-20T02:05:42.181Z,100126.88
2022-11-20T02:08:10.169Z,100116.38
2022-11-20T02:10:38.303Z,100115.34
2022-11-20T02:13:23.717Z,100125.25
2022-11-20T02:15:52.068Z,100116.06
2022-11-20T02:18:21.894Z,100126.56
2022-11-20T02:20:56.257Z,100123.66
2022-11-20T02:23:27.848Z,100130.66
2022-11-20T02:25:57.889Z,100123.53
2022-11-20T02:28:26.219Z,100113.47
2022-11-20T02:30:54.372Z,100110.09
2022-11-20T02:33:22.264Z,100109.50
2022-11-20T02:35:50.362Z,100113.16
2022-11-20T02:38:18.300Z,100113.00
2022-11-20T02:40:47.178Z,100118.41
2022-11-20T02:43:18.989Z,100109.06
2022-11-20T02:45:47.126Z,100114.91
2022-11-20T02:48:15.147Z,100098.94
2022-11-20T02:50:43.692Z,100092.53
2022-11-20T02:53:11.625Z,100090.13
2022-11-20T02:55:39.839Z,100090.84
2022-11-20T02:58:07.909Z,100092.47
2022-11-20T03:00:37.392Z,100087.38
2022-11-20T03:03:05.930Z,100088.97
2022-11-20T03:05:34.073Z,100089.03
2022-11-20T03:08:01.962Z,100084.59
2022-11-20T03:10:30.099Z,100085.25
2022-11-20T03:12:58.059Z,100092.31
2022-11-20T03:15:27.218Z,100092.47
2022-11-20T03:17:57.072Z,100089.25
2022-11-20T03:20:25.333Z,100085.19
2022-11-20T03:22:55.493Z,100087.53
2022-11-20T03:25:24.101Z,100085.47
2022-11-20T03:27:52.033Z,100079.34
2022-11-20T03:30:20.378Z,100079.94
2022-11-20T03:32:48.319Z,100073.88
2022-11-20T03:35:18.551Z,100077.88
2022-11-20T03:37:47.017Z,100082.81
2022-11-20T03:40:15.149Z,100092.78
2022-11-20T03:42:49.113Z,100083.88
2022-11-20T03:45:18.787Z,100079.50
2022-11-20T03:47:46.711Z,100076.66
2022-11-20T03:50:15.426Z,100080.19
2022-11-20T03:52:44.709Z,100088.22
2022-11-20T03:55:12.833Z,100089.84
2022-11-20T03:57:40.685Z,100088.16
2022-11-20T04:00:09.777Z,100088.53
2022-11-20T04:02:37.684Z,100087.38
2022-11-20T04:05:06.481Z,100076.72
2022-11-20T04:07:36.018Z,100078.47
2022-11-20T04:10:06.663Z,100081.25
2022-11-20T04:12:35.434Z,100064.66
2022-11-20T04:15:03.680Z,100075.09
2022-11-20T04:17:31.558Z,100078.31
2022-11-20T04:19:59.638Z,100075.09
2022-11-20T04:22:27.537Z,100065.03
2022-11-20T04:24:55.644Z,100065.41
2022-11-20T04:27:24.904Z,100069.00
2022-11-20T04:29:53.030Z,100080.19
2022-11-20T04:32:20.874Z,100079.75
2022-11-20T04:34:49.065Z,100070.44
2022-11-20T04:37:16.906Z,100071.59
2022-11-20T04:39:45.151Z,100069.53
2022-11-20T04:42:31.294Z,100064.88
2022-11-20T04:45:00.738Z,100076.88
2022-11-20T04:47:28.618Z,100058.84
2022-11-20T04:49:56.938Z,100062.06
2022-11-20T04:52:24.941Z,100066.88
2022-11-20T04:54:54.258Z,100057.53
2022-11-20T04:57:22.202Z,100063.38
2022-11-20T04:59:50.394Z,100058.91
2022-11-20T05:02:19.825Z,100063.94
2022-11-20T05:04:47.996Z,100059.72
2022-11-20T05:07:16.003Z,100065.56
2022-11-20T05:09:44.199Z,100056.03
2022-11-20T05:12:12.335Z,100066.34
2022-11-20T05:14:40.517Z,100060.06
2022-11-20T05:17:12.047Z,100050.13
2022-11-20T05:19:41.570Z,100052.09
2022-11-20T05:22:09.442Z,100046.38
2022-11-20T05:24:37.575Z,100040.88
2022-11-20T05:27:05.492Z,100037.59
2022-11-20T05:29:33.703Z,100038.19
2022-11-20T05:32:01.610Z,100030.88
2022-11-20T05:34:29.832Z,100034.09
2022-11-20T05:36:59.115Z,100034.09
2022-11-20T05:39:27.265Z,100041.75
2022-11-20T05:42:09.096Z,100037.28
2022-11-20T05:44:37.230Z,100044.16
2022-11-20T05:47:05.127Z,100044.63
2022-11-20T05:49:33.608Z,100046.22
2022-11-20T05:52:02.891Z,100042.53
2022-11-20T05:54:31.096Z,100034.44
2022-11-20T05:56:59.157Z,100039.91
2022-11-20T05:59:27.276Z,100045.03
2022-11-20T06:01:55.176Z,100042.28
2022-11-20T06:04:23.665Z,100033.84
2022-11-20T06:06:51.616Z,100034.69
2022-11-20T06:09:21.435Z,100020.53
2022-11-20T06:11:49.514Z,100019.66
2022-11-20T06:14:17.665Z,100017.63
2022-11-20T06:16:45.612Z,100011.91
2022-11-20T06:19:13.735Z,100012.84
2022-11-20T06:21:44.448Z,100015.00
2022-11-20T06:24:12.960Z,100021.84
2022-11-20T06:26:42.228Z,100022.22
2022-11-20T06:29:10.576Z,100024.25
2022-11-20T06:31:38.917Z,100024.25
2022-11-20T06:34:07.486Z,100020.63
2022-11-20T06:36:35.621Z,100030.69
2022-11-20T06:39:04.421Z,100030.22
2022-11-20T06:41:32.319Z,100028.97
2022-11-20T06:44:01.808Z,100023.28
2022-11-20T06:46:29.672Z,100026.44
2022-11-20T06:48:58.959Z,100026.69
2022-11-20T06:51:26.907Z,100036.19
2022-11-20T06:53:55.284Z,100035.50
2022-11-20T06:56:23.162Z,100038.69
2022-11-20T06:58:51.273Z,100040.88
2022-11-20T07:01:20.539Z,100041.47
2022-11-20T07:03:54.208Z,100043.75
2022-11-20T07:06:22.524Z,100043.16
2022-11-20T07:08:52.304Z,100045.34
2022-11-20T07:11:20.241Z,100041.66
2022-11-20T07:13:48.435Z,100046.94
2022-11-20T07:16:17.178Z,100046.94
2022-11-20T07:18:50.430Z,100039.63
2022-11-20T07:21:19.151Z,100047.28
2022-11-20T07:23:47.554Z,100059.09
2022-11-20T07:26:15.502Z,100056.56
2022-11-20T07:28:46.193Z,100055.31
2022-11-20T07:31:18.837Z,100057.25
2022-11-20T07:33:48.822Z,100054.28
2022-11-20T07:36:16.775Z,100056.13
2022-11-20T07:38:44.996Z,100049.25
2022-11-20T07:41:12.920Z,100054.06
2022-11-20T07:43:41.755Z,100051.31
2022-11-20T07:46:09.821Z,100050.72
2022-11-20T07:48:38.007Z,100051.31
2022-11-20T07:51:07.359Z,100052.91
2022-11-20T07:53:35.616Z,100052.91
2022-11-20T07:56:04.816Z,100054.06
2022-11-20T07:58:34.009Z,100062.06
2022-11-20T08:01:05.491Z,100060.56
2022-11-20T08:03:33.684Z,100056.47
2022-11-20T08:06:02.435Z,100059.22
2022-11-20T08:08:33.828Z,100051.66
2022-11-20T08:11:16.065Z,100065.72
2022-11-20T08:14:01.780Z,100058.41
2022-11-20T08:16:29.888Z,100060.34
2022-11-20T08:18:58.258Z,100071.69
2022-11-20T08:21:26.181Z,100065.16
2022-11-20T08:23:55.755Z,100072.81
2022-11-20T08:26:23.866Z,100067.66
2022-11-20T08:28:55.380Z,100066.19
2022-11-20T08:31:23.370Z,100076.84
2022-11-20T08:33:51.489Z,100080.72
2022-11-20T08:36:20.362Z,100079.00
2022-11-20T08:38:49.956Z,100093.31
2022-11-20T08:41:26.519Z,100083.34
2022-11-20T08:43:57.017Z,100096.03
2022-11-20T08:46:25.930Z,100094.09
2022-11-20T08:48:54.291Z,100098.91
2022-11-20T08:51:22.543Z,100098.44
2022-11-20T08:53:51.003Z,100103.72
2022-11-20T08:56:20.345Z,100102.47
2022-11-20T08:59:17.945Z,100096.38
2022-11-20T09:01:36.429Z,100103.81
2022-11-20T09:04:05.600Z,100110.72
2022-11-20T09:06:33.646Z,100109.31
2022-11-20T09:09:06.294Z,100114.25
2022-11-20T09:11:36.524Z,100113.13
2022-11-20T09:14:05.472Z,100115.66
2022-11-20T09:16:33.475Z,100112.44
2022-11-20T09:19:40.615Z,100115.66
2022-11-20T09:21:49.643Z,100111.38
2022-11-20T09:24:17.777Z,100117.69
2022-11-20T09:26:47.056Z,100115.06
2022-11-20T09:29:15.276Z,100109.78
2022-11-20T09:31:43.168Z,100111.19
2022-11-20T09:34:11.807Z,100113.91
2022-11-20T09:36:39.715Z,100122.16
2022-11-20T09:39:08.075Z,100124.31
2022-11-20T09:41:52.301Z,100125.94
2022-11-20T09:44:30.718Z,100124.31
2022-11-20T09:47:03.423Z,100123.78
2022-11-20T09:49:39.117Z,100122.72
2022-11-20T09:52:14.859Z,100129.59
2022-11-20T09:54:43.026Z,100118.28
2022-11-20T09:57:14.299Z,100120.66
2022-11-20T09:59:43.428Z,100121.47
2022-11-20T10:02:18.384Z,100122.25
2022-11-20T10:04:50.761Z,100130.75
2022-11-20T10:07:37.788Z,100127.06
2022-11-20T10:10:06.870Z,100125.47
2022-11-20T10:12:50.183Z,100125.47
2022-11-20T10:15:30.701Z,100125.00
2022-11-20T10:18:11.543Z,100120.06
2022-11-20T10:20:46.608Z,100120.88
2022-11-20T10:23:29.914Z,100124.06
2022-11-20T10:26:03.370Z,100112.75
2022-11-20T10:28:39.376Z,100115.03
2022-11-20T10:31:12.221Z,100109.19
2022-11-20T10:34:05.429Z,100114.69
2022-11-20T10:36:32.650Z,100120.53
2022-11-20T10:39:03.137Z,100108.19
2022-11-20T10:41:35.948Z,100112.41
2022-11-20T10:44:12.080Z,100100.28
2022-11-20T10:46:42.540Z,100100.28
2022-11-20T10:49:29.213Z,100103.47
2022-11-20T10:52:05.297Z,100106.66
2022-11-20T10:54:38.826Z,100099.81
2022-11-20T10:57:18.796Z,100099.81
2022-11-20T11:00:00.304Z,100103.22
2022-11-20T11:02:35.162Z,100105.53
2022-11-20T11:05:14.612Z,100103.25
2022-11-20T11:07:43.514Z,100096.84
2022-11-20T11:10:18.378Z,100093.16
2022-11-20T11:12:48.841Z,100084.72
2022-11-20T11:15:27.986Z,100068.44
2022-11-20T11:17:56.219Z,100061.75
2022-11-20T11:20:26.158Z,100071.03
2022-11-20T11:22:56.812Z,100068.13
2022-11-20T11:25:28.508Z,100059.22
2022-11-20T11:27:59.309Z,100060.94
2022-11-20T11:30:30.929Z,100065.69
2022-11-20T11:33:07.567Z,100053.34
2022-11-20T11:35:35.876Z,100051.56
2022-11-20T11:38:06.678Z,100039.72
2022-11-20T11:40:37.169Z,100041.00
2022-11-20T11:43:27.754Z,100038.59
2022-11-20T11:45:56.945Z,100038.50
2022-11-20T11:48:25.099Z,100033.13
2022-11-20T11:50:53.256Z,100023.72
2022-11-20T11:53:23.885Z,100026.34
2022-11-20T11:55:55.820Z,100019.00
2022-11-20T11:58:36.766Z,100020.69
2022-11-20T12:01:12.280Z,100021.75
2022-11-20T12:03:42.224Z,100023.69
2022-11-20T12:06:13.968Z,100027.28
2022-11-20T12:08:46.867Z,100018.47
2022-11-20T12:11:20.349Z,100026.56
2022-11-20T12:13:53.176Z,100024.25
2022-11-20T12:16:22.875Z,100022.63
2022-11-20T12:18:52.449Z,100013.06
2022-11-20T12:21:22.778Z,100018.56
2022-11-20T12:24:00.668Z,100018.53
2022-11-20T12:26:40.061Z,100010.00
2022-11-20T12:29:12.205Z,100011.56
2022-11-20T12:31:53.714Z,100015.75
2022-11-20T12:34:32.778Z,100020.22
2022-11-20T12:37:06.588Z,100001.91
2022-11-20T12:39:43.056Z,100001.94
2022-11-20T12:43:02.309Z,100001.34
2022-11-20T12:45:40.255Z,100003.22
2022-11-20T12:48:52.731Z,99999.69
2022-11-20T12:51:32.885Z,100008.94
2022-11-20T12:54:11.554Z,99998.56
2022-11-20T12:56:44.404Z,100000.66
2022-11-20T12:59:35.054Z,99995.59
2022-11-20T13:02:14.199Z,99997.91
2022-11-20T13:04:55.077Z,100001.56
2022-11-20T13:07:26.815Z,99997.78
2022-11-20T13:09:55.823Z,99994.00
2022-11-20T13:12:27.560Z,99986.50
2022-11-20T13:15:00.005Z,99979.03
2022-11-20T13:17:33.072Z,99984.03
2022-11-20T13:20:01.511Z,99979.78
2022-11-20T13:22:43.841Z,99965.25
2022-11-20T13:25:16.358Z,99972.41
2022-11-20T13:27:49.350Z,99970.53
2022-11-20T13:30:19.402Z,99962.94
2022-11-20T13:32:53.147Z,99962.59
2022-11-20T13:35:30.457Z,99966.72
2022-11-20T13:38:05.788Z,99953.84
2022-11-20T13:40:33.946Z,99966.53
2022-11-20T13:43:21.583Z,99941.66
2022-11-20T13:46:00.460Z,99946.69
2022-11-20T13:48:32.638Z,99937.34
2022-11-20T13:51:09.919Z,99943.22
2022-11-20T13:53:52.725Z,99942.72
2022-11-20T13:56:26.611Z,99941.63
2022-11-20T13:59:05.191Z,99949.38
2022-11-20T14:01:33.877Z,99952.78
2022-11-20T14:04:06.429Z,99952.53
2022-11-20T14:06:36.904Z,99936.31
2022-11-20T14:09:06.567Z,99933.66
2022-11-20T14:11:34.528Z,99926.16
2022-11-20T14:14:04.800Z,99936.78
2022-11-20T14:16:35.032Z,99924.88
2022-11-20T14:19:31.257Z,99934.69
2022-11-20T14:22:11.287Z,99921.09
2022-11-20T14:24:40.850Z,99929.53
2022-11-20T14:27:14.347Z,99932.69
2022-11-20T14:29:42.645Z,99931.31
2022-11-20T14:32:11.244Z,99927.59
2022-11-20T14:34:41.382Z,99931.22
2022-11-20T14:37:16.811Z,99920.53
2022-11-20T14:39:52.797Z,99913.56
2022-11-20T14:42:22.561Z,99919.47
2022-11-20T14:44:51.561Z,99915.47
2022-11-20T14:47:21.302Z,99924.13
2022-11-20T14:49:50.149Z,99919.31
2022-11-20T14:52:20.086Z,99915.28
2022-11-20T14:54:50.880Z,99911.91
2022-11-20T14:57:27.896Z,99907.28
2022-11-20T15:00:08.240Z,99912.22
2022-11-20T15:02:36.469Z,99919.00
2022-11-20T15:05:05.195Z,99902.03
2022-11-20T15:07:35.257Z,99915.75
2022-11-20T15:10:08.199Z,99919.69
2022-11-20T15:12:38.275Z,99907.72
2022-11-20T15:15:07.865Z,99914.06
2022-11-20T15:17:38.627Z,99903.97
2022-11-20T15:20:12.446Z,99898.63
2022-11-20T15:22:40.352Z,99903.91
2022-11-20T15:25:15.673Z,99899.13
2022-11-20T15:27:43.702Z,99905.16
2022-11-20T15:30:16.021Z,99905.91
2022-11-20T15:32:44.163Z,99905.09
2022-11-20T15:35:12.601Z,99893.69
2022-11-20T15:37:41.417Z,99885.75
2022-11-20T15:40:10.609Z,99883.13
2022-11-20T15:43:00.026Z,99887.84
2022-11-20T15:45:29.439Z,99886.72
2022-11-20T15:47:57.487Z,99890.91
2022-11-20T15:50:28.778Z,99886.13
2022-11-20T15:52:56.657Z,99888.22
2022-11-20T15:55:24.802Z,99879.25
2022-11-20T15:57:54.124Z,99879.25
2022-11-20T16:00:23.857Z,99878.41
2022-11-20T16:02:51.877Z,99873.91
2022-11-20T16:05:20.100Z,99871.25
2022-11-20T16:07:48.004Z,99874.44
2022-11-20T16:10:16.539Z,99876.03
2022-11-20T16:13:02.021Z,99876.53
2022-11-20T16:15:47.089Z,99870.16
2022-11-20T16:18:16.872Z,99874.88
2022-11-20T16:20:45.565Z,99865.25
2022-11-20T16:23:13.631Z,99870.22
2022-11-20T16:25:41.849Z,99866.09
2022-11-20T16:28:12.455Z,99859.50
2022-11-20T16:30:45.766Z,99854.47
2022-11-20T16:33:16.334Z,99854.72
2022-11-20T16:35:44.802Z,99851.56
2022-11-20T16:38:12.740Z,99851.88
2022-11-20T16:40:47.153Z,99847.09
2022-11-20T16:43:15.820Z,99846.53
2022-11-20T16:45:46.296Z,99846.53
2022-11-20T16:48:15.392Z,99844.97
2022-11-20T16:50:49.140Z,99838.63
2022-11-20T16:53:17.826Z,99838.06
2022-11-20T16:55:46.375Z,99844.47
2022-11-20T16:58:14.855Z,99836.53
2022-11-20T17:00:51.170Z,99838.06
2022-11-20T17:03:20.796Z,99833.59
2022-11-20T17:05:48.971Z,99835.91
2022-11-20T17:08:16.913Z,99837.44
2022-11-20T17:10:45.034Z,99837.44
2022-11-20T17:13:12.997Z,99839.53
2022-11-20T17:15:41.206Z,99844.25
2022-11-20T17:18:10.506Z,99843.69
2022-11-20T17:20:38.644Z,99836.03
2022-11-20T17:23:06.561Z,99827.88
2022-11-20T17:25:35.646Z,99825.72
2022-11-20T17:28:03.600Z,99814.09
2022-11-20T17:30:31.755Z,99814.09
2022-11-20T17:32:59.676Z,99814.84
2022-11-20T17:35:29.186Z,99810.63
2022-11-20T17:37:57.423Z,99806.63
2022-11-20T17:40:27.600Z,99813.50
2022-11-20T17:42:56.101Z,99812.38
2022-11-20T17:45:24.514Z,99808.72
2022-11-20T17:47:52.632Z,99811.91
2022-11-20T17:50:20.827Z,99812.88
2022-11-20T17:52:50.080Z,99792.81
2022-11-20T17:55:18.285Z,99790.19
2022-11-20T17:57:56.513Z,99796.72
2022-11-20T18:00:25.308Z,99791.38
2022-11-20T18:02:53.280Z,99783.78
2022-11-20T18:05:21.546Z,99788.50
2022-11-20T18:07:56.732Z,99780.09
2022-11-20T18:10:25.185Z,99769.09
2022-11-20T18:12:54.283Z,99772.69
2022-11-20T18:15:22.424Z,99764.28
2022-11-20T18:17:50.356Z,99767.47
2022-11-20T18:20:28.987Z,99759.31
2022-11-20T18:23:00.058Z,99759.31
2022-11-20T18:25:28.376Z,99759.50
2022-11-20T18:27:56.317Z,99757.34
2022-11-20T18:30:24.632Z,99766.56
2022-11-20T18:32:52.633Z,99763.66
2022-11-20T18:35:21.260Z,99771.50
2022-11-20T18:37:49.184Z,99765.75
2022-11-20T18:40:18.702Z,99762.88
2022-11-20T18:43:04.028Z,99775.50
2022-11-20T18:45:32.167Z,99773.91
2022-11-20T18:48:00.387Z,99770.88
2022-11-20T18:50:28.781Z,99755.72
2022-11-20T18:52:56.911Z,99749.81
2022-11-20T18:55:26.571Z,99754.31
2022-11-20T18:57:55.123Z,99748.88
2022-11-20T19:00:23.978Z,99743.94
2022-11-20T19:02:54.416Z,99748.88
2022-11-20T19:05:23.131Z,99733.56
2022-11-20T19:07:51.032Z,99732.44
2022-11-20T19:10:20.552Z,99755.59
2022-11-20T19:12:50.045Z,99747.59
2022-11-20T19:15:18.594Z,99731.25
2022-11-20T19:17:46.451Z,99732.75
2022-11-20T19:20:14.646Z,99733.72
2022-11-20T19:22:42.672Z,99741.06
2022-11-20T19:25:11.021Z,99731.03
2022-11-20T19:27:39.215Z,99740.75
2022-11-20T19:30:10.570Z,99725.19
2022-11-20T19:32:38.888Z,99722.56
2022-11-20T19:35:07.861Z,99744.19
2022-11-20T19:37:36.950Z,99744.09
2022-11-20T19:40:06.795Z,99732.28
2022-11-20T19:42:35.276Z,99743.63
2022-11-20T19:45:03.869Z,99745.38
2022-11-20T19:48:06.154Z,99739.66
2022-11-20T19:50:24.093Z,99736.69
2022-11-20T19:52:57.340Z,99736.13
2022-11-20T19:55:27.528Z,99725.09
2022-11-20T19:57:56.206Z,99728.78
2022-11-20T20:00:31.166Z,99730.84
2022-11-20T20:03:01.772Z,99718.72
2022-11-20T20:05:30.174Z,99724.00
2022-11-20T20:07:58.307Z,99718.72
2022-11-20T20:10:26.515Z,99717.69
2022-11-20T20:12:54.430Z,99710.84
2022-11-20T20:15:22.651Z,99707.56
2022-11-20T20:17:52.615Z,99712.81
2022-11-20T20:20:22.418Z,99712.81
2022-11-20T20:22:50.340Z,99719.13
2022-11-20T20:25:18.802Z,99726.47
2022-11-20T20:27:46.774Z,99719.59
2022-11-20T20:30:14.938Z,99719.50
2022-11-20T20:32:42.940Z,99727.19
2022-11-20T20:35:11.334Z,99727.97
2022-11-20T20:37:40.737Z,99718.41
2022-11-20T20:40:14.906Z,99718.16
2022-11-20T20:42:43.449Z,99729.00
2022-11-20T20:45:12.063Z,99703.16
2022-11-20T20:47:41.871Z,99714.72
2022-11-20T20:50:11.773Z,99698.84
2022-11-20T20:52:41.493Z,99708.25
2022-11-20T20:55:10.372Z,99696.50
2022-11-20T20:57:38.331Z,99694.84
2022-11-20T21:00:08.676Z,99692.84
2022-11-20T21:02:36.594Z,99701.09
2022-11-20T21:05:05.515Z,99719.28
2022-11-20T21:07:33.653Z,99708.75
2022-11-20T21:10:03.210Z,99709.81
2022-11-20T21:12:31.174Z,99702.38
2022-11-20T21:14:59.401Z,99714.97
2022-11-20T21:17:27.789Z,99716.56
2022-11-20T21:19:55.991Z,99720.25
2022-11-20T21:22:22.926Z,99718.63
2022-11-20T21:24:51.241Z,99718.63
2022-11-20T21:27:20.484Z,99721.16
2022-11-20T21:29:48.677Z,99718.00
2022-11-20T21:32:16.658Z,99716.38
2022-11-20T21:34:44.832Z,99725.31
2022-11-20T21:37:12.961Z,99715.34
2022-11-20T21:39:50.670Z,99724.84
2022-11-20T21:42:20.158Z,99719.09
2022-11-20T21:44:48.337Z,99708.09
2022-11-20T21:47:16.326Z,99716.56
2022-11-20T21:49:44.584Z,99707.09
2022-11-20T21:52:13.233Z,99708.56
2022-11-20T21:54:41.444Z,99710.63
2022-11-20T21:57:09.368Z,99706.91
2022-11-20T21:59:38.900Z,99700.97
2022-11-20T22:02:07.822Z,99695.59
2022-11-20T22:04:35.994Z,99692.41
2022-11-20T22:07:04.062Z,99688.44
2022-11-20T22:09:32.373Z,99693.91
2022-11-20T22:12:00.546Z,99690.47
2022-11-20T22:14:28.065Z,99698.63
2022-11-20T22:16:57.792Z,99699.19
2022-11-20T22:19:26.245Z,99698.94
2022-11-20T22:21:54.141Z,99688.75
2022-11-20T22:24:24.095Z,99704.06
2022-11-20T22:26:52.234Z,99706.22
2022-11-20T22:29:22.147Z,99703.13
2022-11-20T22:31:52.753Z,99723.69
2022-11-20T22:34:22.740Z,99717.19
2022-11-20T22:36:51.097Z,99716.47
2022-11-20T22:39:21.820Z,99714.97
2022-11-20T22:41:49.803Z,99710.81
2022-11-20T22:44:18.304Z,99708.28
2022-11-20T22:46:46.434Z,99694.09
2022-11-20T22:49:14.635Z,99695.22
2022-11-20T22:51:43.931Z,99700.00
2022-11-20T22:54:13.339Z,99704.78
2022-11-20T22:56:41.365Z,99705.28
2022-11-20T22:59:09.596Z,99710.63
2022-11-20T23:01:38.288Z,99710.38
2022-11-20T23:04:08.280Z,99703.88
2022-11-20T23:06:36.243Z,99700.19
2022-11-20T23:09:06.886Z,99697.31
2022-11-20T23:11:36.139Z,99704.97
2022-11-20T23:14:06.326Z,99713.44
2022-11-20T23:16:34.749Z,99712.97
2022-11-20T23:19:05.362Z,99704.00
2022-11-20T23:21:34.051Z,99710.09
2022-11-20T23:24:02.739Z,99716.16
2022-11-20T23:26:33.231Z,99707.69
2022-11-20T23:29:02.041Z,99711.38
2022-11-20T23:31:31.825Z,99711.38
2022-11-20T23:34:00.465Z,99702.91
2022-11-20T23:36:28.555Z,99705.31
2022-11-20T23:38:57.163Z,99693.47
2022-11-20T23:41:25.078Z,99693.56
2022-11-20T23:43:54.978Z,99688.38
2022-11-20T23:46:22.968Z,99682.19
2022-11-20T23:48:51.160Z,99674.38
2022-11-20T23:51:19.162Z,99678.09
2022-11-20T23:53:47.349Z,99683.44
2022-11-20T23:56:15.369Z,99677.69
2022-11-20T23:58:44.124Z,99682.47
